AirNav   Everest Fuels
 
 1163 users online  

6N6 Evers Seaplane Base
New York, New York, USA

GOING TO NEW YORK?


FAA INFORMATION EFFECTIVE 22 APRIL 2021

Location

FAA Identifier: 6N6
Lat/Long: 40-50-45.3610N 073-48-58.4810W
40-50.756017N 073-48.974683W
40.8459336,-73.8162447
(estimated)
Elevation: 0 ft. / 0 m (estimated)
Variation: 13W (1985)
From city: 12 miles NE of NEW YORK, NY
Time zone: UTC -4 (UTC -5 during Standard Time)
Zip code: 10465

Seaplane Base Operations

Seaplane Base use: Open to the public
Activation date: 05/1948
Control tower: no
ARTCC: NEW YORK CENTER
FSS: NEW YORK FLIGHT SERVICE STATION
NOTAMs facility: ISP (NOTAM-D service available)
Attendance: APR-OCT 0800-1900
Wind indicator: yes
Segmented circle: no

Seaplane Base Communications

CTAF: 122.9
WX ASOS at LGA (5 nm SW): PHONE 718-672-6317
WX ASOS at TEB (11 nm W): PHONE 201-393-0855
WX AWOS-3PT at JRB (12 nm SW): 128.175 (212-425-1534)
WX ASOS at JFK (12 nm S): 128.725 (718-656-0956)
WX ASOS at HPN (14 nm N): PHONE 914-288-0216
WX ASOS at EWR (18 nm SW): PHONE 973-621-2892
WX ASOS at FRG (20 nm E): PHONE 631-752-8129

Nearby radio navigation aids

VOR radial/distance  VOR name  Freq  Var
LGAr044/4.4LA GUARDIA VOR/DME113.1012W
TEBr102/11.2TETERBORO VOR/DME108.4011W
JFKr003/12.9KENNEDY VOR/DME115.9012W
CRIr025/14.5CANARSIE VOR/DME112.3011W
DPKr290/23.5DEER PARK VOR/DME117.7012W
CMKr214/28.1CARMEL VOR/DME116.6012W
SAXr123/35.3SPARTA VORTAC115.7011W
COLr037/35.7COLTS NECK VOR/DME115.4011W
BDRr251/36.6BRIDGEPORT VOR/DME108.8012W

 
NDB name  Hdg/Dist  Freq  Var  ID
TORBY092/14.621412WTE - .
BABYLON312/22.227514WBBN -... -... -.
CHATHAM090/28.625413WCAT -.-. .- -

Seaplane Base Services

Parking: tiedowns
Bottled oxygen: NONE
Bulk oxygen: NONE

Runway Information

Runway ALL/WAY

Dimensions: 5000 x 400 ft. / 1524 x 122 m
Surface: water
RUNWAY ALL  RUNWAY WAY
Traffic pattern: leftleft
Obstructions: boatboat

Seaplane Base Ownership and Management from official FAA records

Ownership: Privately-owned
Owner: CHARLES EVERS
1470 OUTLOOK AVENUE
BRONX, NY 10465
Phone 718-863-9111
Manager: CHARLES EVERS
1470 OUTLOOK AVE
NEW YORK, NY 10465
Phone 718-863-9111
CELL 917-544-1195

Seaplane Base Operational Statistics

Aircraft based on the field: 1
Single engine airplanes: 1
    
Aircraft operations: 100/year *
100% air taxi
* for 12-month period ending 04 June 2019

Additional Remarks

LEFT TFC PAT IS W, SW, S, SE; RIGHT TFC PAT IS E, NE, N, NW. ALL TURNS OVER WATER. MIN ALT 300 FT BASE TO FINAL TURN.
DALGT OPNS ONLY.
FOR CD CTC NEW YORK APCH AT 516-683-2849.
UNLGTD BARGE APRXLY 350 FT NE OF LDG DOCK AND RAMP.

Instrument Procedures

There are no published instrument procedures at 6N6.

Some nearby airports with instrument procedures:

KLGA - LaGuardia Airport (5 nm SW)
6N5 - East 34th Street Heliport (9 nm SW)
KJRA - West 30th St Heliport (10 nm SW)
KTEB - Teterboro Airport (11 nm W)
KJRB - Downtown Manhattan/Wall Street Heliport (12 nm SW)
KJFK - John F Kennedy International Airport (12 nm S)
KHPN - Westchester County Airport (14 nm N)
KEWR - Newark Liberty International Airport (18 nm SW)
KFRG - Republic Airport (20 nm E)
 
Loc | Ops | Rwys | IFR | FBO | Links
Com | Nav | Svcs | Stats | Notes
Area around 6N6 (Evers Seaplane Base)
 
Road maps at: MapQuest Bing Google
 
Aerial photo
WARNING: Photo may not be current or correct
Aerial photo of 6N6 (Evers Seaplane Base)
Photo by Charles Evers

Do you have a better or more recent aerial photo of Evers Seaplane Base that you would like to share? If so, please send us your photo.

 
Sectional chart

 
Airport distance calculator
Flying to Evers Seaplane Base? Find the distance to fly.

From to 6N6

Sunrise and sunset
Times for 15-May-2021
 Local
(UTC-4)
 Zulu
(UTC)
Morning civil twilight05:0809:08
Sunrise05:3909:39
Sunset20:0400:04
Evening civil twilight20:3600:36

Current date and time
Zulu (UTC)  15-May-2021 18:33:42
Local (UTC-4)  15-May-2021 14:33:42
 
METAR
KLGA 
5nm SW 
151751Z VRB06KT 10SM FEW080 FEW150 SCT250 24/01 A3021 RMK AO2 SLP231 T02390006 10250 20167 58010 $
KNYC 
8nm SW 
151751Z AUTO VRB03KT 10SM SCT095 23/02 A3025 RMK AO2 SLP233 T02280022 10261 20172 58009 $
KTEB 
11nm W 
151751Z 23006G20KT 10SM BKN110 23/02 A3020 RMK AO2 SLP226 T02280017 10244 20156 58013
KJRB 
12nm SW 
151756Z AUTO 23007KT 10SM CLR 24/04 A3024 RMK AO2 SLP238 T02390044 10244 20144 58008
KJFK 
13nm S 
151751Z 19009KT 10SM SCT085 SCT150 21/04 A3025 RMK AO2 SLP242 T02110044 10239 20133 58002
KHPN 
14nm N 
151756Z 14008KT 10SM SCT080 23/03 A3021 RMK AO2 SLP228 T02280033 10233 20161 58010
KEWR 
19nm SW 
151751Z 15009KT 10SM SCT100 SCT250 25/02 A3022 RMK AO2 SLP231 T02500017 10261 20172 58010
KFRG 
19nm E 
151753Z 20009KT 10SM CLR 23/04 A3023 RMK AO2 SLP236 T02280039 10239 20128 58007
TAF
KLGA 
5nm SW 
151741Z 1518/1624 VRB04KT P6SM SCT050 SCT100 TEMPO 1519/1522 18007KT FM160100 20009KT P6SM FEW050 SCT080 FM160500 VRB05KT P6SM BKN250 FM161500 25007KT P6SM SCT080 BKN250 FM162200 19006KT P6SM BKN080 BKN120
KTEB 
11nm W 
151741Z 1518/1624 24004KT P6SM FEW100 FM151900 18007KT P6SM SCT040 SCT100 FM160100 VRB04KT P6SM BKN250 FM161500 23004KT P6SM FEW080 BKN250 FM162200 19006KT P6SM BKN080 BKN250
KJFK 
13nm S 
151741Z 1518/1624 18013KT P6SM SCT050 SCT080 FM160100 22010KT P6SM FEW050 SCT080 FM160500 VRB05KT P6SM BKN250 FM161500 22007KT P6SM BKN250 FM161700 18012KT P6SM SCT080 SCT120
KHPN 
14nm N 
151741Z 1518/1618 18005KT P6SM FEW040 SCT100 FM152000 19010KT P6SM SCT040 SCT100 FM152100 21009KT P6SM SCT040 BKN100 FM160100 VRB04KT P6SM BKN250 FM161600 23005KT P6SM FEW080 BKN250 AMD NOT SKED
KEWR 
19nm SW 
151741Z 1518/1624 14006KT P6SM FEW050 SCT100 FM151900 16009KT P6SM SCT050 SCT080 FM160100 20005KT P6SM SCT050 SCT080 FM160500 VRB05KT P6SM BKN250 FM161500 23005KT P6SM FEW080 BKN250 FM161900 17007KT P6SM SCT080 BKN250
NOTAMs
Click for the latest NOTAMs
NOTAMs are issued by the DoD/FAA and will open in a separate window not controlled by AirNav.

 

 
 

Would you like to see your business listed on this page?

 If your business provides an interesting product or service to pilots, flight crews, aircraft, or users of the Evers Seaplane Base, you should consider listing it here.  To start the listing process, click on the button below
 
Add a business
 

Other Pages about Evers Seaplane Base

Update a link
 
Copyright © AirNav, LLC. All rights reserved. Privacy Policy  Contact